Time,TemperatureF,DewpointF,PressureIn,WindDirection,WindDirectionDegrees,WindSpeedMPH,WindSpeedGustMPH,Humidity,HourlyPrecipIn,Conditions,Clouds,dailyrainin,SolarRadiationWatts/m^2,SoftwareType,DateUTC
2013-03-14 00:33:00,31.0,19.0,-100.00,NNW,345,7.0,13.0,60,0.00,,,0.00,0.000000,,2013-03-14 04:33:00,
2013-03-14 00:42:00,31.0,19.0,-100.00,NNW,345,7.0,13.0,60,0.00,,,0.00,0.000000,,2013-03-14 04:42:00,
2013-03-14 00:53:00,31.0,19.0,-100.00,NNW,345,7.0,13.0,60,0.00,,,0.00,0.000000,,2013-03-14 04:53:00,
2013-03-14 01:02:00,31.0,19.0,-100.00,NNW,345,7.0,13.0,60,0.00,,,0.00,0.000000,,2013-03-14 05:02:00,
2013-03-14 01:33:00,30.0,19.0,-100.00,NNW,333,6.0,15.0,62,0.00,,,0.00,0.000000,,2013-03-14 05:33:00,
2013-03-14 01:42:00,30.0,19.0,-100.00,NNW,333,6.0,15.0,62,0.00,,,0.00,0.000000,,2013-03-14 05:42:00,
2013-03-14 01:53:00,30.0,19.0,-100.00,NNW,333,6.0,15.0,62,0.00,,,0.00,0.000000,,2013-03-14 05:53:00,
2013-03-14 02:02:00,30.0,19.0,-100.00,NNW,333,6.0,15.0,62,0.00,,,0.00,0.000000,,2013-03-14 06:02:00,
2013-03-14 02:33:00,29.0,19.0,-100.00,NNW,336,7.0,13.0,66,0.00,,,0.00,0.000000,,2013-03-14 06:33:00,
2013-03-14 02:42:00,29.0,19.0,-100.00,NNW,336,7.0,13.0,66,0.00,,,0.00,0.000000,,2013-03-14 06:42:00,
2013-03-14 02:52:00,29.0,19.0,-100.00,NNW,336,7.0,13.0,66,0.00,,,0.00,0.000000,,2013-03-14 06:52:00,
2013-03-14 03:02:00,29.0,19.0,-100.00,NNW,336,7.0,13.0,66,0.00,,,0.00,0.000000,,2013-03-14 07:02:00,
2013-03-14 03:32:00,28.0,18.0,-100.00,NNW,329,8.0,19.0,65,0.00,,,0.00,0.000000,,2013-03-14 07:32:00,
2013-03-14 03:43:00,28.0,18.0,-100.00,NNW,329,8.0,19.0,65,0.00,,,0.00,0.000000,,2013-03-14 07:43:00,
2013-03-14 03:52:00,28.0,18.0,-100.00,NNW,329,8.0,19.0,65,0.00,,,0.00,0.000000,,2013-03-14 07:52:00,
2013-03-14 04:02:00,28.0,18.0,-100.00,NNW,329,8.0,19.0,65,0.00,,,0.00,0.000000,,2013-03-14 08:02:00,
2013-03-14 04:32:00,28.0,18.0,-100.00,NNW,340,8.0,16.0,67,0.00,,,0.00,0.000000,,2013-03-14 08:32:00,
2013-03-14 04:42:00,28.0,18.0,-100.00,NNW,340,8.0,16.0,67,0.00,,,0.00,0.000000,,2013-03-14 08:42:00,
2013-03-14 04:52:00,28.0,18.0,-100.00,NNW,340,8.0,16.0,67,0.00,,,0.00,0.000000,,2013-03-14 08:52:00,
2013-03-14 05:02:00,28.0,18.0,-100.00,NNW,340,8.0,16.0,67,0.00,,,0.00,0.000000,,2013-03-14 09:02:00,
2013-03-14 05:32:00,26.0,18.0,-100.00,NNW,339,7.0,13.0,72,0.00,,,0.00,0.000000,,2013-03-14 09:32:00,
2013-03-14 05:42:00,26.0,18.0,-100.00,NNW,339,7.0,13.0,72,0.00,,,0.00,0.000000,,2013-03-14 09:42:00,
2013-03-14 05:52:00,26.0,18.0,-100.00,NNW,339,7.0,13.0,72,0.00,,,0.00,0.000000,,2013-03-14 09:52:00,
2013-03-14 06:02:00,26.0,18.0,-100.00,NNW,339,7.0,13.0,72,0.00,,,0.00,0.000000,,2013-03-14 10:02:00,
2013-03-14 06:32:00,26.0,18.0,-100.00,NNW,335,8.0,15.0,72,0.00,,,0.00,0.000000,,2013-03-14 10:32:00,
2013-03-14 06:42:00,26.0,18.0,-100.00,NNW,335,8.0,15.0,72,0.00,,,0.00,0.000000,,2013-03-14 10:42:00,
2013-03-14 06:52:00,26.0,18.0,-100.00,NNW,335,8.0,15.0,72,0.00,,,0.00,0.000000,,2013-03-14 10:52:00,
2013-03-14 07:02:00,26.0,18.0,-100.00,NNW,335,8.0,15.0,72,0.00,,,0.00,0.000000,,2013-03-14 11:02:00,
2013-03-14 07:33:00,25.0,18.0,-100.00,NNW,335,8.0,16.0,74,0.00,,,0.00,0.000000,,2013-03-14 11:33:00,
2013-03-14 07:42:00,25.0,18.0,-100.00,NNW,335,8.0,16.0,74,0.00,,,0.00,0.000000,,2013-03-14 11:42:00,
2013-03-14 07:53:00,25.0,18.0,-100.00,NNW,335,8.0,16.0,74,0.00,,,0.00,0.000000,,2013-03-14 11:53:00,
2013-03-14 08:02:00,25.0,18.0,-100.00,NNW,335,8.0,16.0,74,0.00,,,0.00,0.000000,,2013-03-14 12:02:00,
2013-03-14 08:33:00,25.0,19.0,-100.00,NNW,345,8.0,16.0,76,0.00,,,0.00,3.000000,,2013-03-14 12:33:00,
2013-03-14 08:43:00,25.0,19.0,-100.00,NNW,345,8.0,16.0,76,0.00,,,0.00,3.000000,,2013-03-14 12:43:00,
2013-03-14 08:52:00,25.0,19.0,-100.00,NNW,345,8.0,16.0,76,0.00,,,0.00,3.000000,,2013-03-14 12:52:00,
2013-03-14 09:03:00,25.0,19.0,-100.00,NNW,345,8.0,16.0,76,0.00,,,0.00,3.000000,,2013-03-14 13:03:00,
2013-03-14 09:32:00,27.0,20.0,-100.00,NNW,346,9.0,16.0,74,0.00,,,0.00,85.000000,,2013-03-14 13:32:00,
2013-03-14 09:43:00,27.0,20.0,-100.00,NNW,346,9.0,16.0,74,0.00,,,0.00,85.000000,,2013-03-14 13:43:00,
2013-03-14 09:52:00,27.0,20.0,-100.00,NNW,346,9.0,16.0,74,0.00,,,0.00,85.000000,,2013-03-14 13:52:00,
2013-03-14 10:02:00,27.0,20.0,-100.00,NNW,346,9.0,16.0,74,0.00,,,0.00,85.000000,,2013-03-14 14:02:00,
2013-03-14 10:32:00,30.0,20.0,-100.00,North,349,7.0,15.0,65,0.00,,,0.00,185.000000,,2013-03-14 14:32:00,
2013-03-14 10:42:00,30.0,20.0,-100.00,North,349,7.0,15.0,65,0.00,,,0.00,185.000000,,2013-03-14 14:42:00,
2013-03-14 10:53:00,30.0,20.0,-100.00,North,349,7.0,15.0,65,0.00,,,0.00,185.000000,,2013-03-14 14:53:00,
2013-03-14 11:02:00,30.0,20.0,-100.00,North,349,7.0,15.0,65,0.00,,,0.00,185.000000,,2013-03-14 15:02:00,
2013-03-14 11:33:00,35.0,21.0,-100.00,NNW,337,5.0,13.0,56,0.00,,,0.00,266.000000,,2013-03-14 15:33:00,
2013-03-14 11:43:00,35.0,21.0,-100.00,NNW,337,5.0,13.0,56,0.00,,,0.00,266.000000,,2013-03-14 15:43:00,
2013-03-14 11:52:00,35.0,21.0,-100.00,NNW,337,5.0,13.0,56,0.00,,,0.00,266.000000,,2013-03-14 15:52:00,
2013-03-14 12:03:00,35.0,21.0,-100.00,NNW,337,5.0,13.0,56,0.00,,,0.00,266.000000,,2013-03-14 16:03:00,
2013-03-14 12:33:00,38.0,20.0,-100.00,NW,319,7.0,13.0,47,0.00,,,0.00,316.000000,,2013-03-14 16:33:00,
2013-03-14 12:42:00,38.0,20.0,-100.00,NW,319,7.0,13.0,47,0.00,,,0.00,316.000000,,2013-03-14 16:42:00,
2013-03-14 12:52:00,38.0,20.0,-100.00,NW,319,7.0,13.0,47,0.00,,,0.00,316.000000,,2013-03-14 16:52:00,
2013-03-14 13:02:00,38.0,20.0,-100.00,NW,319,7.0,13.0,47,0.00,,,0.00,316.000000,,2013-03-14 17:02:00,
2013-03-14 13:33:00,43.0,18.0,-100.00,NW,313,5.0,11.0,36,0.00,,,0.00,340.000000,,2013-03-14 17:33:00,
2013-03-14 13:42:00,43.0,18.0,-100.00,NW,313,5.0,11.0,36,0.00,,,0.00,340.000000,,2013-03-14 17:42:00,
2013-03-14 13:53:00,43.0,18.0,-100.00,NW,313,5.0,11.0,36,0.00,,,0.00,340.000000,,2013-03-14 17:53:00,
2013-03-14 14:03:00,43.0,18.0,-100.00,NW,313,5.0,11.0,36,0.00,,,0.00,340.000000,,2013-03-14 18:03:00,
2013-03-14 14:33:00,45.0,15.0,-100.00,NW,304,5.0,10.0,30,0.00,,,0.00,342.000000,,2013-03-14 18:33:00,
2013-03-14 14:43:00,45.0,15.0,-100.00,NW,304,5.0,10.0,30,0.00,,,0.00,342.000000,,2013-03-14 18:43:00,
2013-03-14 14:53:00,45.0,15.0,-100.00,NW,304,5.0,10.0,30,0.00,,,0.00,342.000000,,2013-03-14 18:53:00,
2013-03-14 15:03:00,45.0,15.0,-100.00,NW,304,5.0,10.0,30,0.00,,,0.00,342.000000,,2013-03-14 19:03:00,
2013-03-14 16:32:00,51.0,16.0,-100.00,NW,312,6.0,11.0,24,-99.99,,,0.00,299.000000,,2013-03-14 20:32:00,
2013-03-14 16:42:00,51.0,16.0,-100.00,NW,312,6.0,11.0,24,-99.99,,,0.00,299.000000,,2013-03-14 20:42:00,
2013-03-14 16:52:00,51.0,16.0,-100.00,NW,312,6.0,11.0,24,-99.99,,,0.00,299.000000,,2013-03-14 20:52:00,
2013-03-14 17:03:00,51.0,16.0,-100.00,NW,312,6.0,11.0,24,-99.99,,,0.00,299.000000,,2013-03-14 21:03:00,
2013-03-14 17:33:00,52.0,15.0,-100.00,SSW,211,4.0,12.0,23,0.00,,,0.00,230.000000,,2013-03-14 21:33:00,
2013-03-14 17:43:00,52.0,15.0,-100.00,SSW,211,4.0,12.0,23,0.00,,,0.00,230.000000,,2013-03-14 21:43:00,
2013-03-14 17:53:00,52.0,15.0,-100.00,SSW,211,4.0,12.0,23,0.00,,,0.00,230.000000,,2013-03-14 21:53:00,
2013-03-14 18:04:00,52.0,15.0,-100.00,SSW,211,4.0,12.0,23,0.00,,,0.00,230.000000,,2013-03-14 22:04:00,
2013-03-14 18:33:00,53.0,13.0,-100.00,WNW,300,5.0,8.0,20,0.00,,,0.00,187.000000,,2013-03-14 22:33:00,
2013-03-14 18:42:00,53.0,13.0,-100.00,WNW,300,5.0,8.0,20,0.00,,,0.00,187.000000,,2013-03-14 22:42:00,
2013-03-14 18:53:00,53.0,13.0,-100.00,WNW,300,5.0,8.0,20,0.00,,,0.00,187.000000,,2013-03-14 22:53:00,
2013-03-14 19:03:00,53.0,13.0,-100.00,WNW,300,5.0,8.0,20,0.00,,,0.00,187.000000,,2013-03-14 23:03:00,
2013-03-14 19:33:00,50.0,13.0,-100.00,WNW,291,6.0,12.0,22,0.00,,,0.00,72.000000,,2013-03-14 23:33:00,
2013-03-14 19:43:00,50.0,13.0,-100.00,WNW,291,6.0,12.0,22,0.00,,,0.00,72.000000,,2013-03-14 23:43:00,
2013-03-14 19:54:00,50.0,13.0,-100.00,WNW,291,6.0,12.0,22,0.00,,,0.00,72.000000,,2013-03-14 23:54:00,
2013-03-14 20:02:00,50.0,13.0,-100.00,WNW,291,6.0,12.0,22,0.00,,,0.00,72.000000,,2013-03-15 00:02:00,
2013-03-14 20:33:00,47.0,12.0,-100.00,WNW,301,6.0,11.0,24,0.00,,,0.00,7.000000,,2013-03-15 00:33:00,
2013-03-14 20:43:00,47.0,12.0,-100.00,WNW,301,6.0,11.0,24,0.00,,,0.00,7.000000,,2013-03-15 00:43:00,
2013-03-14 20:52:00,47.0,12.0,-100.00,WNW,301,6.0,11.0,24,0.00,,,0.00,7.000000,,2013-03-15 00:52:00,
2013-03-14 21:02:00,47.0,12.0,-100.00,WNW,301,6.0,11.0,24,0.00,,,0.00,7.000000,,2013-03-15 01:02:00,
2013-03-14 21:33:00,46.0,15.0,-100.00,NNW,328,7.0,13.0,28,0.00,,,0.00,0.000000,,2013-03-15 01:33:00,
2013-03-14 21:43:00,46.0,15.0,-100.00,NNW,328,7.0,13.0,28,0.00,,,0.00,0.000000,,2013-03-15 01:43:00,
2013-03-14 21:52:00,46.0,15.0,-100.00,NNW,328,7.0,13.0,28,0.00,,,0.00,0.000000,,2013-03-15 01:52:00,
2013-03-14 22:03:00,46.0,15.0,-100.00,NNW,328,7.0,13.0,28,0.00,,,0.00,0.000000,,2013-03-15 02:03:00,
2013-03-14 22:32:00,38.0,33.0,-100.00,NW,315,3.0,15.0,83,0.02,,,0.02,0.000000,,2013-03-15 02:32:00,
2013-03-14 22:42:00,38.0,33.0,-100.00,NW,315,3.0,15.0,83,0.02,,,0.02,0.000000,,2013-03-15 02:42:00,
2013-03-14 22:52:00,38.0,33.0,-100.00,NW,315,3.0,15.0,83,0.02,,,0.02,0.000000,,2013-03-15 02:52:00,
2013-03-14 23:02:00,38.0,33.0,-100.00,NW,315,3.0,15.0,83,0.02,,,0.02,0.000000,,2013-03-15 03:02:00,
2013-03-14 23:33:00,37.0,34.0,-100.00,NE,48,5.0,8.0,88,0.00,,,-99.99,0.000000,,2013-03-15 03:33:00,
2013-03-14 23:43:00,37.0,34.0,-100.00,NE,48,5.0,8.0,88,0.00,,,-99.99,0.000000,,2013-03-15 03:43:00,
2013-03-14 23:53:00,37.0,34.0,-100.00,NE,48,5.0,8.0,88,0.00,,,-99.99,0.000000,,2013-03-15 03:53:00,